Terminal Aerodrome Forecast
Issued by NWS

Home | Current Version | Previous Version | Text Only | Print | Product List | Glossary On
Versions: 1 2 3 4 5 6 7 8 9 10 11 12 13 14 15 16 17 18 19 20 21 22 23 24 25 26 27 28 29 30 31 32 33 34 35 36
000
FTUS45 KSLC 201735
TAFOGD
TAF
KOGD 201735Z 2018/2118 17015G25KT P6SM BKN080
     FM202200 18012KT P6SM -RA SCT030 OVC050
     FM210300 17016G25KT P6SM BKN070=

USA.gov is the U.S. government's official web portal to all federal, state and local government web resources and services.